sensor_id;sensor_type;location;lat;lon;timestamp;P1;durP1;ratioP1;P2;durP2;ratioP2
68310;SDS011;55157;51.036;17.058;2024-02-23T00:00:21;18.88;;;12.43;;
68310;SDS011;55157;51.036;17.058;2024-02-23T00:02:47;11.10;;;5.88;;
68310;SDS011;55157;51.036;17.058;2024-02-23T00:05:12;6.68;;;4.30;;
68310;SDS011;55157;51.036;17.058;2024-02-23T00:07:37;6.25;;;4.10;;
68310;SDS011;55157;51.036;17.058;2024-02-23T00:10:03;5.93;;;3.33;;
68310;SDS011;55157;51.036;17.058;2024-02-23T00:12:28;4.93;;;2.90;;
68310;SDS011;55157;51.036;17.058;2024-02-23T00:14:54;6.03;;;2.95;;
68310;SDS011;55157;51.036;17.058;2024-02-23T00:17:20;5.63;;;3.28;;
68310;SDS011;55157;51.036;17.058;2024-02-23T00:19:45;5.82;;;3.45;;
68310;SDS011;55157;51.036;17.058;2024-02-23T00:22:11;5.75;;;3.70;;
68310;SDS011;55157;51.036;17.058;2024-02-23T00:24:36;9.93;;;3.75;;
68310;SDS011;55157;51.036;17.058;2024-02-23T00:27:01;8.40;;;4.18;;
68310;SDS011;55157;51.036;17.058;2024-02-23T00:29:26;6.75;;;3.33;;
68310;SDS011;55157;51.036;17.058;2024-02-23T00:31:53;7.55;;;3.63;;
68310;SDS011;55157;51.036;17.058;2024-02-23T00:34:18;8.40;;;4.28;;
68310;SDS011;55157;51.036;17.058;2024-02-23T00:36:43;6.35;;;2.97;;
68310;SDS011;55157;51.036;17.058;2024-02-23T00:39:09;4.10;;;2.65;;
68310;SDS011;55157;51.036;17.058;2024-02-23T00:41:34;8.38;;;2.80;;
68310;SDS011;55157;51.036;17.058;2024-02-23T00:43:59;5.07;;;2.47;;
68310;SDS011;55157;51.036;17.058;2024-02-23T00:46:24;4.82;;;2.50;;
68310;SDS011;55157;51.036;17.058;2024-02-23T00:48:51;4.97;;;2.75;;
68310;SDS011;55157;51.036;17.058;2024-02-23T00:51:16;6.35;;;1.85;;
68310;SDS011;55157;51.036;17.058;2024-02-23T00:53:42;4.82;;;2.28;;
68310;SDS011;55157;51.036;17.058;2024-02-23T00:56:07;8.43;;;1.83;;
68310;SDS011;55157;51.036;17.058;2024-02-23T00:58:32;4.13;;;2.10;;
68310;SDS011;55157;51.036;17.058;2024-02-23T01:00:57;2.67;;;1.60;;
68310;SDS011;55157;51.036;17.058;2024-02-23T01:03:23;3.65;;;2.00;;
68310;SDS011;55157;51.036;17.058;2024-02-23T01:05:49;7.20;;;2.00;;
68310;SDS011;55157;51.036;17.058;2024-02-23T01:08:14;2.10;;;1.52;;
68310;SDS011;55157;51.036;17.058;2024-02-23T01:10:40;5.80;;;2.47;;
68310;SDS011;55157;51.036;17.058;2024-02-23T01:13:05;3.80;;;1.95;;
68310;SDS011;55157;51.036;17.058;2024-02-23T01:15:30;2.15;;;1.60;;
68310;SDS011;55157;51.036;17.058;2024-02-23T01:17:55;2.85;;;1.60;;
68310;SDS011;55157;51.036;17.058;2024-02-23T01:20:21;3.42;;;1.90;;
68310;SDS011;55157;51.036;17.058;2024-02-23T01:22:47;3.40;;;2.13;;
68310;SDS011;55157;51.036;17.058;2024-02-23T01:25:13;2.65;;;1.58;;
68310;SDS011;55157;51.036;17.058;2024-02-23T01:27:38;3.17;;;1.95;;
68310;SDS011;55157;51.036;17.058;2024-02-23T01:30:04;9.63;;;2.88;;
68310;SDS011;55157;51.036;17.058;2024-02-23T01:32:30;5.82;;;3.03;;
68310;SDS011;55157;51.036;17.058;2024-02-23T01:34:55;3.75;;;2.42;;
68310;SDS011;55157;51.036;17.058;2024-02-23T01:37:20;4.88;;;2.53;;
68310;SDS011;55157;51.036;17.058;2024-02-23T01:39:47;3.15;;;1.88;;
68310;SDS011;55157;51.036;17.058;2024-02-23T01:42:12;4.82;;;2.38;;
68310;SDS011;55157;51.036;17.058;2024-02-23T01:44:39;3.97;;;2.63;;
68310;SDS011;55157;51.036;17.058;2024-02-23T01:47:04;8.63;;;3.47;;
68310;SDS011;55157;51.036;17.058;2024-02-23T01:49:29;3.50;;;2.15;;
68310;SDS011;55157;51.036;17.058;2024-02-23T01:51:55;4.40;;;2.88;;
68310;SDS011;55157;51.036;17.058;2024-02-23T01:54:20;3.28;;;2.33;;
68310;SDS011;55157;51.036;17.058;2024-02-23T01:56:47;3.80;;;2.45;;
68310;SDS011;55157;51.036;17.058;2024-02-23T01:59:12;4.65;;;2.65;;
68310;SDS011;55157;51.036;17.058;2024-02-23T02:01:38;3.50;;;2.45;;
68310;SDS011;55157;51.036;17.058;2024-02-23T02:04:04;3.97;;;2.30;;
68310;SDS011;55157;51.036;17.058;2024-02-23T02:06:29;3.28;;;2.63;;
68310;SDS011;55157;51.036;17.058;2024-02-23T02:08:54;4.35;;;2.92;;
68310;SDS011;55157;51.036;17.058;2024-02-23T02:11:19;4.43;;;2.95;;
68310;SDS011;55157;51.036;17.058;2024-02-23T02:13:46;4.13;;;3.17;;
68310;SDS011;55157;51.036;17.058;2024-02-23T02:16:11;3.30;;;2.80;;
68310;SDS011;55157;51.036;17.058;2024-02-23T02:18:37;6.10;;;3.38;;
68310;SDS011;55157;51.036;17.058;2024-02-23T02:21:02;3.20;;;2.90;;
68310;SDS011;55157;51.036;17.058;2024-02-23T02:23:27;4.93;;;3.22;;
68310;SDS011;55157;51.036;17.058;2024-02-23T02:25:53;4.38;;;3.30;;
68310;SDS011;55157;51.036;17.058;2024-02-23T02:28:18;7.15;;;3.13;;
68310;SDS011;55157;51.036;17.058;2024-02-23T02:30:45;4.47;;;3.53;;
68310;SDS011;55157;51.036;17.058;2024-02-23T02:33:10;6.10;;;3.13;;
68310;SDS011;55157;51.036;17.058;2024-02-23T02:35:35;5.03;;;3.72;;
68310;SDS011;55157;51.036;17.058;2024-02-23T02:38:00;4.47;;;3.30;;
68310;SDS011;55157;51.036;17.058;2024-02-23T02:40:26;4.78;;;3.50;;
68310;SDS011;55157;51.036;17.058;2024-02-23T02:42:51;4.90;;;3.45;;
68310;SDS011;55157;51.036;17.058;2024-02-23T02:45:16;4.03;;;3.15;;
68310;SDS011;55157;51.036;17.058;2024-02-23T02:47:43;4.82;;;3.35;;
68310;SDS011;55157;51.036;17.058;2024-02-23T02:50:08;3.65;;;3.20;;
68310;SDS011;55157;51.036;17.058;2024-02-23T02:52:34;4.50;;;3.45;;
68310;SDS011;55157;51.036;17.058;2024-02-23T02:54:59;4.18;;;3.30;;
68310;SDS011;55157;51.036;17.058;2024-02-23T02:57:24;6.05;;;4.13;;
68310;SDS011;55157;51.036;17.058;2024-02-23T02:59:49;5.68;;;3.88;;
68310;SDS011;55157;51.036;17.058;2024-02-23T03:02:15;5.68;;;3.63;;
68310;SDS011;55157;51.036;17.058;2024-02-23T03:04:47;4.88;;;3.22;;
68310;SDS011;55157;51.036;17.058;2024-02-23T03:07:12;3.50;;;3.13;;
68310;SDS011;55157;51.036;17.058;2024-02-23T03:09:38;6.57;;;3.80;;
68310;SDS011;55157;51.036;17.058;2024-02-23T03:12:03;6.63;;;3.78;;
68310;SDS011;55157;51.036;17.058;2024-02-23T03:14:28;6.60;;;4.50;;
68310;SDS011;55157;51.036;17.058;2024-02-23T03:16:53;4.35;;;2.85;;
68310;SDS011;55157;51.036;17.058;2024-02-23T03:19:19;3.92;;;2.65;;
68310;SDS011;55157;51.036;17.058;2024-02-23T03:21:45;4.38;;;3.30;;
68310;SDS011;55157;51.036;17.058;2024-02-23T03:24:11;4.32;;;2.78;;
68310;SDS011;55157;51.036;17.058;2024-02-23T03:26:36;6.88;;;2.90;;
68310;SDS011;55157;51.036;17.058;2024-02-23T03:29:01;4.18;;;3.30;;
68310;SDS011;55157;51.036;17.058;2024-02-23T03:31:26;4.35;;;3.20;;
68310;SDS011;55157;51.036;17.058;2024-02-23T03:33:52;4.55;;;2.80;;
68310;SDS011;55157;51.036;17.058;2024-02-23T03:36:17;4.75;;;3.10;;
68310;SDS011;55157;51.036;17.058;2024-02-23T03:38:44;3.40;;;2.83;;
68310;SDS011;55157;51.036;17.058;2024-02-23T03:41:09;3.80;;;2.63;;
68310;SDS011;55157;51.036;17.058;2024-02-23T03:43:34;3.28;;;2.58;;
68310;SDS011;55157;51.036;17.058;2024-02-23T03:45:59;2.97;;;2.47;;
68310;SDS011;55157;51.036;17.058;2024-02-23T03:48:25;2.97;;;2.58;;
68310;SDS011;55157;51.036;17.058;2024-02-23T03:50:50;5.03;;;2.72;;
68310;SDS011;55157;51.036;17.058;2024-02-23T03:53:15;2.80;;;2.60;;
68310;SDS011;55157;51.036;17.058;2024-02-23T03:55:42;2.60;;;2.38;;
68310;SDS011;55157;51.036;17.058;2024-02-23T03:58:07;3.17;;;2.83;;
68310;SDS011;55157;51.036;17.058;2024-02-23T04:00:33;2.92;;;2.47;;
68310;SDS011;55157;51.036;17.058;2024-02-23T04:02:58;4.07;;;2.40;;
68310;SDS011;55157;51.036;17.058;2024-02-23T04:05:23;5.57;;;2.33;;
68310;SDS011;55157;51.036;17.058;2024-02-23T04:07:48;2.55;;;2.10;;
68310;SDS011;55157;51.036;17.058;2024-02-23T04:10:14;2.83;;;2.50;;
68310;SDS011;55157;51.036;17.058;2024-02-23T04:12:40;3.60;;;2.70;;
68310;SDS011;55157;51.036;17.058;2024-02-23T04:15:06;3.08;;;2.30;;
68310;SDS011;55157;51.036;17.058;2024-02-23T04:17:31;4.47;;;2.80;;
68310;SDS011;55157;51.036;17.058;2024-02-23T04:19:56;2.85;;;2.50;;
68310;SDS011;55157;51.036;17.058;2024-02-23T04:22:22;3.15;;;2.80;;
68310;SDS011;55157;51.036;17.058;2024-02-23T04:24:47;4.05;;;2.72;;
68310;SDS011;55157;51.036;17.058;2024-02-23T04:27:12;3.28;;;2.67;;
68310;SDS011;55157;51.036;17.058;2024-02-23T04:29:39;4.35;;;2.95;;
68310;SDS011;55157;51.036;17.058;2024-02-23T04:32:04;3.97;;;3.17;;
68310;SDS011;55157;51.036;17.058;2024-02-23T04:34:30;5.00;;;3.35;;
68310;SDS011;55157;51.036;17.058;2024-02-23T04:36:56;4.88;;;3.50;;
68310;SDS011;55157;51.036;17.058;2024-02-23T04:39:21;4.57;;;3.55;;
68310;SDS011;55157;51.036;17.058;2024-02-23T04:41:46;4.13;;;3.33;;
68310;SDS011;55157;51.036;17.058;2024-02-23T04:44:12;5.60;;;3.60;;
68310;SDS011;55157;51.036;17.058;2024-02-23T04:46:39;4.25;;;3.10;;
68310;SDS011;55157;51.036;17.058;2024-02-23T04:49:04;5.32;;;3.92;;
68310;SDS011;55157;51.036;17.058;2024-02-23T04:51:29;5.05;;;3.55;;
68310;SDS011;55157;51.036;17.058;2024-02-23T04:53:54;4.05;;;3.65;;
68310;SDS011;55157;51.036;17.058;2024-02-23T04:56:20;4.63;;;3.85;;
68310;SDS011;55157;51.036;17.058;2024-02-23T04:58:45;4.35;;;2.90;;
68310;SDS011;55157;51.036;17.058;2024-02-23T05:01:10;6.22;;;3.78;;
68310;SDS011;55157;51.036;17.058;2024-02-23T05:03:37;20.50;;;9.10;;
68310;SDS011;55157;51.036;17.058;2024-02-23T05:06:02;79.20;;;36.53;;
68310;SDS011;55157;51.036;17.058;2024-02-23T05:08:28;41.08;;;18.02;;
68310;SDS011;55157;51.036;17.058;2024-02-23T05:10:53;162.38;;;62.80;;
68310;SDS011;55157;51.036;17.058;2024-02-23T05:13:18;220.02;;;78.15;;
68310;SDS011;55157;51.036;17.058;2024-02-23T05:15:44;295.23;;;103.10;;
68310;SDS011;55157;51.036;17.058;2024-02-23T05:18:09;353.67;;;125.47;;
68310;SDS011;55157;51.036;17.058;2024-02-23T05:20:36;412.35;;;147.05;;
68310;SDS011;55157;51.036;17.058;2024-02-23T05:23:01;480.55;;;192.93;;
68310;SDS011;55157;51.036;17.058;2024-02-23T05:25:27;335.65;;;130.05;;
68310;SDS011;55157;51.036;17.058;2024-02-23T05:27:52;144.25;;;52.38;;
68310;SDS011;55157;51.036;17.058;2024-02-23T05:30:17;373.58;;;154.60;;
68310;SDS011;55157;51.036;17.058;2024-02-23T05:32:43;140.60;;;44.72;;
68310;SDS011;55157;51.036;17.058;2024-02-23T05:35:08;103.05;;;31.50;;
68310;SDS011;55157;51.036;17.058;2024-02-23T05:37:35;74.10;;;23.15;;
68310;SDS011;55157;51.036;17.058;2024-02-23T05:40:01;51.85;;;16.02;;
68310;SDS011;55157;51.036;17.058;2024-02-23T05:42:26;47.55;;;14.55;;
68310;SDS011;55157;51.036;17.058;2024-02-23T05:44:51;62.30;;;17.90;;
68310;SDS011;55157;51.036;17.058;2024-02-23T05:47:16;37.75;;;12.98;;
68310;SDS011;55157;51.036;17.058;2024-02-23T05:49:42;44.10;;;15.63;;
68310;SDS011;55157;51.036;17.058;2024-02-23T05:52:07;30.00;;;11.30;;
68310;SDS011;55157;51.036;17.058;2024-02-23T05:54:34;34.75;;;14.32;;
68310;SDS011;55157;51.036;17.058;2024-02-23T05:56:59;32.00;;;12.88;;
68310;SDS011;55157;51.036;17.058;2024-02-23T05:59:24;23.60;;;10.88;;
68310;SDS011;55157;51.036;17.058;2024-02-23T06:01:50;18.27;;;8.48;;
68310;SDS011;55157;51.036;17.058;2024-02-23T06:04:15;8.95;;;5.25;;
68310;SDS011;55157;51.036;17.058;2024-02-23T06:06:41;13.10;;;5.72;;
68310;SDS011;55157;51.036;17.058;2024-02-23T06:09:06;10.98;;;5.90;;
68310;SDS011;55157;51.036;17.058;2024-02-23T06:11:33;16.63;;;8.55;;
68310;SDS011;55157;51.036;17.058;2024-02-23T06:13:59;14.23;;;7.47;;
68310;SDS011;55157;51.036;17.058;2024-02-23T06:16:24;12.95;;;7.43;;
68310;SDS011;55157;51.036;17.058;2024-02-23T06:18:49;7.93;;;4.68;;
68310;SDS011;55157;51.036;17.058;2024-02-23T06:21:14;6.65;;;3.35;;
68310;SDS011;55157;51.036;17.058;2024-02-23T06:23:40;6.38;;;3.97;;
68310;SDS011;55157;51.036;17.058;2024-02-23T06:26:05;4.05;;;2.78;;
68310;SDS011;55157;51.036;17.058;2024-02-23T06:28:32;3.17;;;2.20;;
68310;SDS011;55157;51.036;17.058;2024-02-23T06:30:57;2.55;;;2.03;;
68310;SDS011;55157;51.036;17.058;2024-02-23T06:33:23;2.92;;;1.80;;
68310;SDS011;55157;51.036;17.058;2024-02-23T06:35:48;3.63;;;2.30;;
68310;SDS011;55157;51.036;17.058;2024-02-23T06:38:13;4.40;;;2.40;;
68310;SDS011;55157;51.036;17.058;2024-02-23T06:40:39;3.17;;;2.45;;
68310;SDS011;55157;51.036;17.058;2024-02-23T06:43:04;3.78;;;2.15;;
68310;SDS011;55157;51.036;17.058;2024-02-23T06:45:31;2.47;;;2.13;;
68310;SDS011;55157;51.036;17.058;2024-02-23T06:47:56;2.08;;;1.70;;
68310;SDS011;55157;51.036;17.058;2024-02-23T06:50:21;3.28;;;2.03;;
68310;SDS011;55157;51.036;17.058;2024-02-23T06:52:47;2.47;;;1.60;;
68310;SDS011;55157;51.036;17.058;2024-02-23T06:55:12;1.98;;;1.40;;
68310;SDS011;55157;51.036;17.058;2024-02-23T06:57:38;1.85;;;1.40;;
68310;SDS011;55157;51.036;17.058;2024-02-23T07:00:03;3.83;;;2.03;;
68310;SDS011;55157;51.036;17.058;2024-02-23T07:02:30;3.53;;;1.90;;
68310;SDS011;55157;51.036;17.058;2024-02-23T07:04:56;3.35;;;2.35;;
68310;SDS011;55157;51.036;17.058;2024-02-23T07:07:21;2.60;;;1.80;;
68310;SDS011;55157;51.036;17.058;2024-02-23T07:09:46;3.10;;;1.70;;
68310;SDS011;55157;51.036;17.058;2024-02-23T07:12:12;4.97;;;1.88;;
68310;SDS011;55157;51.036;17.058;2024-02-23T07:14:37;4.38;;;1.85;;
68310;SDS011;55157;51.036;17.058;2024-02-23T07:17:02;2.33;;;1.55;;
68310;SDS011;55157;51.036;17.058;2024-02-23T07:19:29;2.47;;;1.50;;
68310;SDS011;55157;51.036;17.058;2024-02-23T07:21:54;3.83;;;2.30;;
68310;SDS011;55157;51.036;17.058;2024-02-23T07:24:20;3.28;;;2.22;;
68310;SDS011;55157;51.036;17.058;2024-02-23T07:26:45;5.63;;;2.50;;
68310;SDS011;55157;51.036;17.058;2024-02-23T07:29:10;4.63;;;2.58;;
68310;SDS011;55157;51.036;17.058;2024-02-23T07:31:35;4.88;;;2.38;;
68310;SDS011;55157;51.036;17.058;2024-02-23T07:34:01;3.17;;;2.03;;
68310;SDS011;55157;51.036;17.058;2024-02-23T07:36:28;5.50;;;1.98;;
68310;SDS011;55157;51.036;17.058;2024-02-23T07:38:53;5.22;;;2.13;;
68310;SDS011;55157;51.036;17.058;2024-02-23T07:41:18;4.45;;;2.00;;
68310;SDS011;55157;51.036;17.058;2024-02-23T07:43:43;3.67;;;2.00;;
68310;SDS011;55157;51.036;17.058;2024-02-23T07:46:09;2.53;;;1.83;;
68310;SDS011;55157;51.036;17.058;2024-02-23T07:48:34;3.15;;;1.77;;
68310;SDS011;55157;51.036;17.058;2024-02-23T07:50:59;3.58;;;2.13;;
68310;SDS011;55157;51.036;17.058;2024-02-23T07:53:26;4.00;;;1.85;;
68310;SDS011;55157;51.036;17.058;2024-02-23T07:55:51;5.28;;;2.45;;
68310;SDS011;55157;51.036;17.058;2024-02-23T07:58:16;7.30;;;2.22;;
68310;SDS011;55157;51.036;17.058;2024-02-23T08:00:42;4.03;;;2.33;;
68310;SDS011;55157;51.036;17.058;2024-02-23T08:03:07;3.83;;;2.30;;
68310;SDS011;55157;51.036;17.058;2024-02-23T08:05:32;6.35;;;2.67;;
68310;SDS011;55157;51.036;17.058;2024-02-23T08:07:57;6.13;;;2.97;;
68310;SDS011;55157;51.036;17.058;2024-02-23T08:10:24;7.18;;;2.58;;
68310;SDS011;55157;51.036;17.058;2024-02-23T08:12:49;6.00;;;2.92;;
68310;SDS011;55157;51.036;17.058;2024-02-23T08:15:15;4.72;;;3.03;;
68310;SDS011;55157;51.036;17.058;2024-02-23T08:17:40;8.20;;;3.00;;
68310;SDS011;55157;51.036;17.058;2024-02-23T08:20:06;3.33;;;2.00;;
68310;SDS011;55157;51.036;17.058;2024-02-23T08:22:31;3.10;;;1.80;;
68310;SDS011;55157;51.036;17.058;2024-02-23T08:24:56;3.20;;;2.22;;
68310;SDS011;55157;51.036;17.058;2024-02-23T08:27:23;3.85;;;2.20;;
68310;SDS011;55157;51.036;17.058;2024-02-23T08:29:48;3.78;;;2.15;;
68310;SDS011;55157;51.036;17.058;2024-02-23T08:32:13;4.35;;;2.72;;
68310;SDS011;55157;51.036;17.058;2024-02-23T08:34:39;6.72;;;2.88;;
68310;SDS011;55157;51.036;17.058;2024-02-23T08:37:04;7.25;;;3.67;;
68310;SDS011;55157;51.036;17.058;2024-02-23T08:39:29;5.18;;;3.28;;
68310;SDS011;55157;51.036;17.058;2024-02-23T08:41:54;5.55;;;2.95;;
68310;SDS011;55157;51.036;17.058;2024-02-23T08:44:21;5.15;;;3.42;;
68310;SDS011;55157;51.036;17.058;2024-02-23T08:46:46;6.43;;;3.53;;
68310;SDS011;55157;51.036;17.058;2024-02-23T08:49:12;8.00;;;4.85;;
68310;SDS011;55157;51.036;17.058;2024-02-23T08:51:37;10.13;;;6.03;;
68310;SDS011;55157;51.036;17.058;2024-02-23T08:54:02;10.38;;;6.63;;
68310;SDS011;55157;51.036;17.058;2024-02-23T08:56:28;7.03;;;4.07;;
68310;SDS011;55157;51.036;17.058;2024-02-23T08:58:53;5.15;;;3.40;;
68310;SDS011;55157;51.036;17.058;2024-02-23T09:01:20;4.95;;;2.60;;
68310;SDS011;55157;51.036;17.058;2024-02-23T09:03:45;6.20;;;2.97;;
68310;SDS011;55157;51.036;17.058;2024-02-23T09:06:10;3.35;;;2.67;;
68310;SDS011;55157;51.036;17.058;2024-02-23T09:08:36;5.13;;;2.22;;
68310;SDS011;55157;51.036;17.058;2024-02-23T09:11:01;2.20;;;1.30;;
68310;SDS011;55157;51.036;17.058;2024-02-23T09:13:26;2.47;;;1.42;;
68310;SDS011;55157;51.036;17.058;2024-02-23T09:15:51;3.13;;;0.90;;
68310;SDS011;55157;51.036;17.058;2024-02-23T09:18:18;1.98;;;0.98;;
68310;SDS011;55157;51.036;17.058;2024-02-23T09:20:43;2.17;;;0.82;;
68310;SDS011;55157;51.036;17.058;2024-02-23T09:23:09;1.45;;;1.00;;
68310;SDS011;55157;51.036;17.058;2024-02-23T09:25:34;3.25;;;1.10;;
68310;SDS011;55157;51.036;17.058;2024-02-23T09:27:59;3.47;;;1.15;;
68310;SDS011;55157;51.036;17.058;2024-02-23T09:30:24;4.63;;;1.15;;
68310;SDS011;55157;51.036;17.058;2024-02-23T09:32:49;3.30;;;0.90;;
68310;SDS011;55157;51.036;17.058;2024-02-23T09:35:16;4.03;;;1.33;;
68310;SDS011;55157;51.036;17.058;2024-02-23T09:37:41;5.68;;;1.33;;
68310;SDS011;55157;51.036;17.058;2024-02-23T09:40:07;4.10;;;0.90;;
68310;SDS011;55157;51.036;17.058;2024-02-23T09:42:32;3.17;;;1.10;;
68310;SDS011;55157;51.036;17.058;2024-02-23T09:44:58;2.40;;;1.08;;
68310;SDS011;55157;51.036;17.058;2024-02-23T09:47:24;1.95;;;0.95;;
68310;SDS011;55157;51.036;17.058;2024-02-23T09:49:49;4.70;;;1.30;;
68310;SDS011;55157;51.036;17.058;2024-02-23T09:52:17;1.85;;;1.00;;
68310;SDS011;55157;51.036;17.058;2024-02-23T09:54:43;1.23;;;0.88;;
68310;SDS011;55157;51.036;17.058;2024-02-23T09:57:08;2.05;;;1.10;;
68310;SDS011;55157;51.036;17.058;2024-02-23T09:59:34;2.97;;;1.23;;
68310;SDS011;55157;51.036;17.058;2024-02-23T10:01:59;2.28;;;1.15;;
68310;SDS011;55157;51.036;17.058;2024-02-23T10:04:24;1.80;;;1.00;;
68310;SDS011;55157;51.036;17.058;2024-02-23T10:06:52;1.80;;;1.10;;
68310;SDS011;55157;51.036;17.058;2024-02-23T10:09:18;2.33;;;0.93;;
68310;SDS011;55157;51.036;17.058;2024-02-23T10:11:43;2.75;;;1.23;;
68310;SDS011;55157;51.036;17.058;2024-02-23T10:14:09;3.72;;;1.45;;
68310;SDS011;55157;51.036;17.058;2024-02-23T10:16:34;4.68;;;1.80;;
68310;SDS011;55157;51.036;17.058;2024-02-23T10:18:59;2.72;;;1.20;;
68310;SDS011;55157;51.036;17.058;2024-02-23T10:21:24;1.98;;;0.93;;
68310;SDS011;55157;51.036;17.058;2024-02-23T10:23:50;2.22;;;1.00;;
68310;SDS011;55157;51.036;17.058;2024-02-23T10:26:16;3.80;;;0.98;;
68310;SDS011;55157;51.036;17.058;2024-02-23T10:28:42;2.28;;;0.90;;
68310;SDS011;55157;51.036;17.058;2024-02-23T10:31:07;3.85;;;1.15;;
68310;SDS011;55157;51.036;17.058;2024-02-23T10:33:32;1.10;;;0.75;;
68310;SDS011;55157;51.036;17.058;2024-02-23T10:35:57;1.42;;;0.90;;
68310;SDS011;55157;51.036;17.058;2024-02-23T10:38:23;3.88;;;0.98;;
68310;SDS011;55157;51.036;17.058;2024-02-23T10:40:48;2.55;;;0.70;;
68310;SDS011;55157;51.036;17.058;2024-02-23T10:43:17;1.38;;;0.90;;
68310;SDS011;55157;51.036;17.058;2024-02-23T10:45:45;2.20;;;0.90;;
68310;SDS011;55157;51.036;17.058;2024-02-23T10:48:11;2.15;;;1.00;;
68310;SDS011;55157;51.036;17.058;2024-02-23T10:50:36;1.95;;;0.82;;
68310;SDS011;55157;51.036;17.058;2024-02-23T10:53:02;2.33;;;0.90;;
68310;SDS011;55157;51.036;17.058;2024-02-23T10:55:29;2.88;;;1.30;;
68310;SDS011;55157;51.036;17.058;2024-02-23T10:57:56;1.17;;;1.00;;
68310;SDS011;55157;51.036;17.058;2024-02-23T11:00:25;5.22;;;1.00;;
68310;SDS011;55157;51.036;17.058;2024-02-23T11:02:51;2.38;;;1.30;;
68310;SDS011;55157;51.036;17.058;2024-02-23T11:05:16;1.50;;;1.00;;
68310;SDS011;55157;51.036;17.058;2024-02-23T11:07:43;2.03;;;0.90;;
68310;SDS011;55157;51.036;17.058;2024-02-23T11:10:13;2.25;;;1.15;;
68310;SDS011;55157;51.036;17.058;2024-02-23T11:12:38;4.00;;;1.75;;
68310;SDS011;55157;51.036;17.058;2024-02-23T11:15:03;2.05;;;0.90;;
68310;SDS011;55157;51.036;17.058;2024-02-23T11:17:31;2.83;;;1.33;;
68310;SDS011;55157;51.036;17.058;2024-02-23T11:19:56;3.33;;;1.23;;
68310;SDS011;55157;51.036;17.058;2024-02-23T11:22:25;4.20;;;0.95;;
68310;SDS011;55157;51.036;17.058;2024-02-23T11:24:50;2.22;;;1.13;;
68310;SDS011;55157;51.036;17.058;2024-02-23T11:27:15;3.58;;;1.13;;
68310;SDS011;55157;51.036;17.058;2024-02-23T11:29:41;5.88;;;0.90;;
68310;SDS011;55157;51.036;17.058;2024-02-23T11:32:13;1.75;;;0.90;;
68310;SDS011;55157;51.036;17.058;2024-02-23T11:34:39;2.70;;;1.13;;
68310;SDS011;55157;51.036;17.058;2024-02-23T11:37:07;3.45;;;1.50;;
68310;SDS011;55157;51.036;17.058;2024-02-23T11:39:32;1.58;;;0.90;;
68310;SDS011;55157;51.036;17.058;2024-02-23T11:41:57;3.38;;;1.02;;
68310;SDS011;55157;51.036;17.058;2024-02-23T11:44:23;3.70;;;1.10;;
68310;SDS011;55157;51.036;17.058;2024-02-23T11:46:48;14.55;;;5.53;;
68310;SDS011;55157;51.036;17.058;2024-02-23T11:49:13;42.17;;;24.33;;
68310;SDS011;55157;51.036;17.058;2024-02-23T11:51:40;12.20;;;5.13;;
68310;SDS011;55157;51.036;17.058;2024-02-23T11:54:06;8.90;;;4.43;;
68310;SDS011;55157;51.036;17.058;2024-02-23T11:56:31;5.97;;;2.25;;
68310;SDS011;55157;51.036;17.058;2024-02-23T11:58:56;3.88;;;2.03;;
68310;SDS011;55157;51.036;17.058;2024-02-23T12:01:22;3.35;;;1.10;;
68310;SDS011;55157;51.036;17.058;2024-02-23T12:03:47;2.47;;;1.00;;
68310;SDS011;55157;51.036;17.058;2024-02-23T12:06:12;2.03;;;1.20;;
68310;SDS011;55157;51.036;17.058;2024-02-23T12:08:39;1.27;;;0.80;;
68310;SDS011;55157;51.036;17.058;2024-02-23T12:11:04;1.90;;;1.00;;
68310;SDS011;55157;51.036;17.058;2024-02-23T12:13:30;3.63;;;1.00;;
68310;SDS011;55157;51.036;17.058;2024-02-23T12:15:55;3.88;;;1.30;;
68310;SDS011;55157;51.036;17.058;2024-02-23T12:18:21;11.00;;;2.33;;
68310;SDS011;55157;51.036;17.058;2024-02-23T12:20:47;3.25;;;1.50;;
68310;SDS011;55157;51.036;17.058;2024-02-23T12:23:12;2.78;;;1.58;;
68310;SDS011;55157;51.036;17.058;2024-02-23T12:25:39;3.50;;;1.30;;
68310;SDS011;55157;51.036;17.058;2024-02-23T12:28:04;3.08;;;1.30;;
68310;SDS011;55157;51.036;17.058;2024-02-23T12:30:29;6.55;;;1.30;;
68310;SDS011;55157;51.036;17.058;2024-02-23T12:33:02;3.05;;;1.55;;
68310;SDS011;55157;51.036;17.058;2024-02-23T12:35:28;4.07;;;1.75;;
68310;SDS011;55157;51.036;17.058;2024-02-23T12:37:53;3.40;;;1.55;;
68310;SDS011;55157;51.036;17.058;2024-02-23T12:40:18;3.45;;;1.60;;
68310;SDS011;55157;51.036;17.058;2024-02-23T12:42:45;3.17;;;1.70;;
68310;SDS011;55157;51.036;17.058;2024-02-23T12:45:10;5.47;;;1.92;;
68310;SDS011;55157;51.036;17.058;2024-02-23T12:47:35;4.72;;;1.90;;
68310;SDS011;55157;51.036;17.058;2024-02-23T12:50:01;9.77;;;2.80;;
68310;SDS011;55157;51.036;17.058;2024-02-23T12:52:26;12.27;;;4.93;;
68310;SDS011;55157;51.036;17.058;2024-02-23T12:54:52;9.07;;;2.60;;
68310;SDS011;55157;51.036;17.058;2024-02-23T12:57:17;6.93;;;2.40;;
68310;SDS011;55157;51.036;17.058;2024-02-23T12:59:44;10.15;;;2.70;;
68310;SDS011;55157;51.036;17.058;2024-02-23T13:02:09;5.05;;;2.55;;
68310;SDS011;55157;51.036;17.058;2024-02-23T13:04:36;3.90;;;1.77;;
68310;SDS011;55157;51.036;17.058;2024-02-23T13:07:02;4.55;;;2.72;;
68310;SDS011;55157;51.036;17.058;2024-02-23T13:09:27;7.18;;;3.78;;
68310;SDS011;55157;51.036;17.058;2024-02-23T13:11:52;8.00;;;2.50;;
68310;SDS011;55157;51.036;17.058;2024-02-23T13:14:18;7.93;;;1.70;;
68310;SDS011;55157;51.036;17.058;2024-02-23T13:16:44;4.82;;;2.28;;
68310;SDS011;55157;51.036;17.058;2024-02-23T13:19:10;4.68;;;2.60;;
68310;SDS011;55157;51.036;17.058;2024-02-23T13:21:35;11.70;;;3.97;;
68310;SDS011;55157;51.036;17.058;2024-02-23T13:24:00;7.20;;;3.47;;
68310;SDS011;55157;51.036;17.058;2024-02-23T13:26:26;11.10;;;3.30;;
68310;SDS011;55157;51.036;17.058;2024-02-23T13:28:51;6.38;;;1.92;;
68310;SDS011;55157;51.036;17.058;2024-02-23T13:31:16;3.03;;;1.67;;
68310;SDS011;55157;51.036;17.058;2024-02-23T13:33:43;6.30;;;1.70;;
68310;SDS011;55157;51.036;17.058;2024-02-23T13:36:08;4.25;;;1.70;;
68310;SDS011;55157;51.036;17.058;2024-02-23T13:38:34;6.05;;;1.98;;
68310;SDS011;55157;51.036;17.058;2024-02-23T13:40:59;6.53;;;1.90;;
68310;SDS011;55157;51.036;17.058;2024-02-23T13:43:24;5.68;;;2.28;;
68310;SDS011;55157;51.036;17.058;2024-02-23T13:45:50;6.28;;;2.63;;
68310;SDS011;55157;51.036;17.058;2024-02-23T13:48:16;6.05;;;2.70;;
68310;SDS011;55157;51.036;17.058;2024-02-23T13:50:42;10.52;;;4.25;;
68310;SDS011;55157;51.036;17.058;2024-02-23T13:53:08;16.00;;;11.32;;
68310;SDS011;55157;51.036;17.058;2024-02-23T13:55:33;13.57;;;8.43;;
68310;SDS011;55157;51.036;17.058;2024-02-23T13:57:58;14.88;;;7.53;;
68310;SDS011;55157;51.036;17.058;2024-02-23T14:00:23;8.50;;;5.07;;
68310;SDS011;55157;51.036;17.058;2024-02-23T14:02:49;11.25;;;4.07;;
68310;SDS011;55157;51.036;17.058;2024-02-23T14:05:14;10.18;;;4.13;;
68310;SDS011;55157;51.036;17.058;2024-02-23T14:07:40;7.22;;;3.47;;
68310;SDS011;55157;51.036;17.058;2024-02-23T14:10:06;6.05;;;3.60;;
68310;SDS011;55157;51.036;17.058;2024-02-23T14:12:32;6.38;;;2.45;;
68310;SDS011;55157;51.036;17.058;2024-02-23T14:14:57;4.65;;;1.98;;
68310;SDS011;55157;51.036;17.058;2024-02-23T14:17:22;11.20;;;2.55;;
68310;SDS011;55157;51.036;17.058;2024-02-23T14:19:47;4.53;;;1.88;;